createdAt,value
2023-02-14T00:00:49.465Z,92448.09
2023-02-14T00:03:17.432Z,92442.19
2023-02-14T00:05:44.116Z,92451.56
2023-02-14T00:08:10.887Z,92442.03
2023-02-14T00:10:37.548Z,92448.31
2023-02-14T00:13:05.131Z,92439.06
2023-02-14T00:15:31.775Z,92441.38
2023-02-14T00:18:02.209Z,92446.97
2023-02-14T00:20:29.230Z,92444.06
2023-02-14T00:22:55.979Z,92451.97
2023-02-14T00:25:22.930Z,92446.09
2023-02-14T00:27:49.789Z,92442.50
2023-02-14T00:30:16.589Z,92445.59
2023-02-14T00:32:43.515Z,92443.53
2023-02-14T00:35:11.310Z,92441.44
2023-02-14T00:37:38.108Z,92430.16
2023-02-14T00:40:07.071Z,92432.22
2023-02-14T00:42:33.867Z,92416.06
2023-02-14T00:45:00.773Z,92414.03
2023-02-14T00:47:27.658Z,92368.66
2023-02-14T00:49:54.479Z,92416.25
2023-02-14T00:52:21.357Z,92415.75
2023-02-14T00:54:48.033Z,92407.78
2023-02-14T00:57:14.727Z,92396.47
2023-02-14T00:59:42.490Z,92393.56
2023-02-14T01:02:09.237Z,92390.03
2023-02-14T01:04:36.018Z,92387.47
2023-02-14T01:07:02.704Z,92376.16
2023-02-14T01:09:29.375Z,92372.81
2023-02-14T01:11:56.476Z,92376.63
2023-02-14T01:14:23.159Z,92385.63
2023-02-14T01:16:49.893Z,92379.25
2023-02-14T01:19:16.930Z,92376.66
2023-02-14T01:21:43.781Z,92385.44
2023-02-14T01:24:12.069Z,92387.31
2023-02-14T01:26:39.628Z,92379.19
2023-02-14T01:29:07.002Z,92376.13
2023-02-14T01:31:35.609Z,92378.22
2023-02-14T01:34:02.823Z,92377.53
2023-02-14T01:36:38.846Z,92371.56
2023-02-14T01:39:08.769Z,92375.63
2023-02-14T01:41:38.062Z,92377.22
2023-02-14T01:44:33.418Z,92376.94
2023-02-14T01:47:01.956Z,92380.69
2023-02-14T01:49:32.690Z,92379.94
2023-02-14T01:52:22.524Z,92387.28
2023-02-14T01:54:55.022Z,92382.31
2023-02-14T01:57:24.707Z,92388.03
2023-02-14T01:59:56.028Z,92379.63
2023-02-14T02:02:25.566Z,92382.97
2023-02-14T02:04:56.062Z,92380.44
2023-02-14T02:07:26.379Z,92381.97
2023-02-14T02:09:57.274Z,92374.28
2023-02-14T02:12:24.830Z,92370.47
2023-02-14T02:14:55.334Z,92372.78
2023-02-14T02:17:58.931Z,92369.34
2023-02-14T02:20:49.656Z,92369.91
2023-02-14T02:24:04.648Z,92361.84
2023-02-14T02:26:56.537Z,92369.28
2023-02-14T02:29:41.923Z,92362.97
2023-02-14T02:32:15.412Z,92354.19
2023-02-14T02:34:42.230Z,92357.94
2023-02-14T02:37:17.288Z,92357.88
2023-02-14T02:39:53.556Z,92372.78
2023-02-14T02:42:22.842Z,92374.09
2023-02-14T02:45:07.422Z,92366.13
2023-02-14T02:47:56.344Z,92347.72
2023-02-14T02:50:51.418Z,92353.75
2023-02-14T02:53:52.153Z,92350.22
2023-02-14T02:56:45.022Z,92346.03
2023-02-14T02:59:26.106Z,92348.34
2023-02-14T03:01:56.872Z,92346.59
2023-02-14T03:04:44.530Z,92350.19
2023-02-14T03:07:30.143Z,92361.25
2023-02-14T03:09:59.362Z,92349.97
2023-02-14T03:12:35.228Z,92351.84
2023-02-14T03:15:21.221Z,92346.38
2023-02-14T03:18:02.901Z,92329.78
2023-02-14T03:20:35.783Z,92333.69
2023-02-14T03:23:32.551Z,92330.91
2023-02-14T03:26:22.316Z,92324.00
2023-02-14T03:28:57.841Z,92326.72
2023-02-14T03:31:32.296Z,92324.53
2023-02-14T03:34:07.833Z,92328.81
2023-02-14T03:36:42.646Z,92315.38
2023-02-14T03:39:16.818Z,92310.16
2023-02-14T03:41:57.400Z,92302.25
2023-02-14T03:44:28.601Z,92301.84
2023-02-14T03:47:01.460Z,92310.81
2023-02-14T03:49:34.655Z,92312.91
2023-02-14T03:52:03.532Z,92314.44
2023-02-14T03:54:32.900Z,92307.28
2023-02-14T03:57:06.024Z,92300.78
2023-02-14T03:59:32.753Z,92284.50
2023-02-14T04:02:14.854Z,92257.31
2023-02-14T04:04:47.412Z,92288.97
2023-02-14T04:07:17.355Z,92284.72
2023-02-14T04:09:44.680Z,92285.16
2023-02-14T04:12:12.636Z,92282.91
2023-02-14T04:14:39.852Z,92279.50
2023-02-14T04:17:25.657Z,92289.88
2023-02-14T04:19:52.555Z,92288.88
2023-02-14T04:22:19.817Z,92291.72
2023-02-14T04:24:46.714Z,92286.13
2023-02-14T04:27:13.828Z,92296.47
2023-02-14T04:29:43.225Z,92274.88
2023-02-14T04:32:13.157Z,92280.81
2023-02-14T04:34:40.489Z,92249.47
2023-02-14T04:37:07.883Z,92271.19
2023-02-14T04:39:35.386Z,92267.50
2023-02-14T04:42:02.871Z,92248.75
2023-02-14T04:44:29.827Z,92256.69
2023-02-14T04:46:56.728Z,92253.63
2023-02-14T04:49:24.470Z,92227.72
2023-02-14T04:51:51.279Z,92243.75
2023-02-14T04:54:17.952Z,92250.16
2023-02-14T04:56:44.898Z,92256.28
2023-02-14T04:59:11.698Z,92261.78
2023-02-14T05:01:38.436Z,92261.88
2023-02-14T05:04:05.456Z,92264.34
2023-02-14T05:06:33.021Z,92269.03
2023-02-14T05:09:00.368Z,92264.72
2023-02-14T05:11:31.442Z,92264.47
2023-02-14T05:13:58.083Z,92260.16
2023-02-14T05:16:24.951Z,92245.75
2023-02-14T05:18:51.774Z,92251.84
2023-02-14T05:21:18.477Z,92250.56
2023-02-14T05:23:45.170Z,92246.38
2023-02-14T05:26:12.123Z,92247.66
2023-02-14T05:28:41.070Z,92242.53
2023-02-14T05:31:09.843Z,92251.44
2023-02-14T05:33:36.784Z,92244.94
2023-02-14T05:36:03.732Z,92246.22
2023-02-14T05:38:31.332Z,92253.53
2023-02-14T05:40:58.413Z,92253.09
2023-02-14T05:43:26.307Z,92252.69
2023-02-14T05:45:54.359Z,92215.19
2023-02-14T05:48:21.145Z,92245.81
2023-02-14T05:50:47.991Z,92252.50
2023-02-14T05:53:15.477Z,92247.47
2023-02-14T05:55:42.246Z,92252.50
2023-02-14T05:58:09.334Z,92256.09
2023-02-14T06:00:38.828Z,92258.84
2023-02-14T06:03:06.649Z,92251.56
2023-02-14T06:05:33.418Z,92245.50
2023-02-14T06:08:01.547Z,92247.56
2023-02-14T06:10:28.709Z,92238.16
2023-02-14T06:12:55.621Z,92241.19
2023-02-14T06:15:22.932Z,92239.47
2023-02-14T06:17:57.376Z,92240.50
2023-02-14T06:20:24.879Z,92233.38
2023-02-14T06:22:52.533Z,92230.94
2023-02-14T06:25:20.606Z,92225.59
2023-02-14T06:27:49.291Z,92224.88
2023-02-14T06:30:17.728Z,92216.66
2023-02-14T06:32:45.086Z,92215.19
2023-02-14T06:35:15.254Z,92210.09
2023-02-14T06:37:42.396Z,92206.78
2023-02-14T06:40:10.346Z,92201.81
2023-02-14T06:42:37.206Z,92208.16
2023-02-14T06:45:05.247Z,92212.66
2023-02-14T06:47:34.582Z,92202.06
2023-02-14T06:50:05.136Z,92195.47
2023-02-14T06:52:33.563Z,92182.63
2023-02-14T06:55:00.260Z,92180.75
2023-02-14T06:57:27.087Z,92178.91
2023-02-14T06:59:54.438Z,92174.97
2023-02-14T07:02:24.212Z,92164.72
2023-02-14T07:04:51.509Z,92152.00
2023-02-14T07:07:18.199Z,92155.56
2023-02-14T07:09:45.972Z,92167.09
2023-02-14T07:12:12.712Z,92167.25
2023-02-14T07:14:39.372Z,92162.38
2023-02-14T07:17:06.083Z,92164.59
2023-02-14T07:19:32.709Z,92165.66
2023-02-14T07:21:59.431Z,92163.31
2023-02-14T07:24:26.067Z,92149.63
2023-02-14T07:26:52.700Z,92141.00
2023-02-14T07:29:19.473Z,92145.50
2023-02-14T07:31:46.296Z,92140.72
2023-02-14T07:34:13.235Z,92135.72
2023-02-14T07:36:40.011Z,92130.59
2023-02-14T07:39:06.754Z,92131.81
2023-02-14T07:41:33.590Z,92133.97
2023-02-14T07:44:00.832Z,92118.91
2023-02-14T07:46:27.559Z,92129.88
2023-02-14T07:48:54.463Z,92130.25
2023-02-14T07:51:21.234Z,92134.88
2023-02-14T07:53:48.736Z,92135.56
2023-02-14T07:56:15.392Z,92130.69
2023-02-14T07:58:42.297Z,92121.22
2023-02-14T08:01:09.308Z,92117.75
2023-02-14T08:03:35.971Z,92123.41
2023-02-14T08:06:02.933Z,92122.66
2023-02-14T08:08:31.935Z,92114.72
2023-02-14T08:10:59.316Z,92106.63
2023-02-14T08:13:26.241Z,92103.81
2023-02-14T08:16:19.358Z,92094.56
2023-02-14T08:18:46.292Z,92083.47
2023-02-14T08:21:12.985Z,92061.53
2023-02-14T08:23:39.681Z,92079.88
2023-02-14T08:26:06.452Z,92076.72
2023-02-14T08:28:33.320Z,92065.75
2023-02-14T08:31:00.913Z,92064.22
2023-02-14T08:33:28.407Z,92064.59
2023-02-14T08:35:55.209Z,92065.53
2023-02-14T08:38:22.783Z,92070.31
2023-02-14T08:40:49.481Z,92073.47
2023-02-14T08:43:16.181Z,92071.50
2023-02-14T08:45:43.497Z,92061.22
2023-02-14T08:48:12.551Z,92077.72
2023-02-14T08:50:40.213Z,92075.09
2023-02-14T08:53:10.212Z,92079.69
2023-02-14T08:55:37.961Z,92088.34
2023-02-14T08:58:05.280Z,92080.91
2023-02-14T09:00:33.886Z,92073.47
2023-02-14T09:03:01.020Z,92071.56
2023-02-14T09:05:28.003Z,92087.69
2023-02-14T09:07:56.645Z,92090.25
2023-02-14T09:10:24.464Z,92092.19
2023-02-14T09:12:51.485Z,92085.22
2023-02-14T09:15:18.382Z,92081.50
2023-02-14T09:17:45.181Z,92077.78
2023-02-14T09:20:13.600Z,92080.88
2023-02-14T09:22:40.560Z,92075.97
2023-02-14T09:25:07.381Z,92071.00
2023-02-14T09:27:34.167Z,92072.19
2023-02-14T09:30:01.008Z,92069.19
2023-02-14T09:32:29.212Z,92070.06
2023-02-14T09:35:14.800Z,92076.28
2023-02-14T09:37:41.634Z,92072.75
2023-02-14T09:40:09.450Z,92077.38
2023-02-14T09:42:55.055Z,92069.53
2023-02-14T09:45:25.663Z,92063.84
2023-02-14T09:48:07.693Z,92064.44
2023-02-14T09:51:01.080Z,92062.00
2023-02-14T09:53:31.722Z,92049.38
2023-02-14T09:56:08.638Z,92051.44
2023-02-14T09:59:08.084Z,92037.69
2023-02-14T10:01:55.572Z,92032.75
2023-02-14T10:05:00.927Z,92035.16
2023-02-14T10:07:36.004Z,92041.09
2023-02-14T10:10:02.596Z,92031.13
2023-02-14T10:12:46.207Z,92041.50
2023-02-14T10:15:19.159Z,92027.34
2023-02-14T10:17:57.144Z,92028.91
2023-02-14T10:20:33.780Z,92026.75
2023-02-14T10:23:18.004Z,92026.81
2023-02-14T10:25:49.336Z,92011.75
2023-02-14T10:28:19.887Z,92021.59
2023-02-14T10:31:01.676Z,92012.50
2023-02-14T10:33:33.399Z,92016.69
2023-02-14T10:36:18.787Z,91985.31
2023-02-14T10:38:45.298Z,92014.41
2023-02-14T10:41:29.992Z,92011.72
2023-02-14T10:44:16.336Z,92012.47
2023-02-14T10:46:54.160Z,92006.47
2023-02-14T10:49:38.443Z,92004.09
2023-02-14T10:52:08.288Z,91994.69
2023-02-14T10:54:40.119Z,91987.59
2023-02-14T10:57:16.347Z,91978.03
2023-02-14T11:00:10.959Z,91976.28
2023-02-14T11:02:41.799Z,91964.19
2023-02-14T11:05:24.908Z,91963.75
2023-02-14T11:07:51.559Z,91963.06
2023-02-14T11:10:24.535Z,91974.00
2023-02-14T11:12:51.201Z,91943.78
2023-02-14T11:15:25.606Z,91969.13
2023-02-14T11:18:31.982Z,91966.47
2023-02-14T11:21:05.900Z,91956.53
2023-02-14T11:23:47.443Z,91953.31
2023-02-14T11:26:31.650Z,91952.38
2023-02-14T11:29:11.073Z,91940.00
2023-02-14T11:31:39.750Z,91940.41
2023-02-14T11:34:48.523Z,91940.41
2023-02-14T11:37:31.612Z,91938.31
2023-02-14T11:40:01.593Z,91934.69
2023-02-14T11:42:37.887Z,91915.03
2023-02-14T11:45:06.403Z,91916.09
2023-02-14T11:47:37.521Z,91903.25
2023-02-14T11:50:13.416Z,91909.03
2023-02-14T11:52:51.033Z,91910.22
2023-02-14T11:55:30.806Z,91897.69
2023-02-14T11:57:58.243Z,91890.94
2023-02-14T12:00:27.086Z,91893.94
2023-02-14T12:02:54.193Z,91887.94
2023-02-14T12:05:44.584Z,91889.38
2023-02-14T12:08:11.965Z,91871.97
2023-02-14T12:10:40.133Z,91881.06
2023-02-14T12:13:09.777Z,91884.72
2023-02-14T12:15:49.230Z,91878.06
2023-02-14T12:18:50.495Z,91879.63
2023-02-14T12:21:26.475Z,91873.59
2023-02-14T12:24:26.613Z,91862.28
2023-02-14T12:27:17.945Z,91860.00
2023-02-14T12:29:52.704Z,91855.81
2023-02-14T12:32:31.486Z,91860.00
2023-02-14T12:35:18.430Z,91857.00
2023-02-14T12:38:04.408Z,91870.56
2023-02-14T12:40:46.612Z,91872.06
2023-02-14T12:43:25.735Z,91872.00
2023-02-14T12:46:03.544Z,91871.28
2023-02-14T12:48:39.237Z,91857.38
2023-02-14T12:51:25.171Z,91851.66
2023-02-14T12:54:13.264Z,91848.63
2023-02-14T12:56:51.024Z,91840.63
2023-02-14T12:59:45.037Z,91842.81
2023-02-14T13:02:17.911Z,91847.94
2023-02-14T13:04:56.159Z,91845.69
2023-02-14T13:07:25.436Z,91838.78
2023-02-14T13:10:40.714Z,91833.28
2023-02-14T13:13:16.482Z,91824.50
2023-02-14T13:16:00.520Z,91811.97
2023-02-14T13:18:47.001Z,91839.78
2023-02-14T13:21:16.905Z,91827.69
2023-02-14T13:24:11.132Z,91823.06
2023-02-14T13:26:40.536Z,91830.66
2023-02-14T13:29:16.488Z,91830.00
2023-02-14T13:31:44.206Z,91829.16
2023-02-14T13:34:29.390Z,91836.97
2023-02-14T13:36:58.573Z,91835.81
2023-02-14T13:39:45.647Z,91849.59
2023-02-14T13:42:13.084Z,91845.91
2023-02-14T13:44:50.725Z,91851.94
2023-02-14T13:47:21.721Z,91853.56
2023-02-14T13:49:55.586Z,91854.06
2023-02-14T13:52:48.772Z,91852.13
2023-02-14T13:55:22.030Z,91853.03
2023-02-14T13:58:07.692Z,91841.59
2023-02-14T14:00:43.439Z,91852.75
2023-02-14T14:03:28.923Z,91855.56
2023-02-14T14:06:06.076Z,91850.88
2023-02-14T14:08:47.434Z,91844.63
2023-02-14T14:11:33.975Z,91845.06
2023-02-14T14:14:26.103Z,91856.00
2023-02-14T14:17:00.459Z,91862.22
2023-02-14T14:19:27.244Z,91863.88
2023-02-14T14:22:14.292Z,91862.66
2023-02-14T14:24:56.049Z,91864.97
2023-02-14T14:27:41.899Z,91872.44
2023-02-14T14:30:33.541Z,91874.34
2023-02-14T14:33:34.366Z,91876.00
2023-02-14T14:36:08.843Z,91874.91
2023-02-14T14:38:47.660Z,91873.50
2023-02-14T14:41:14.525Z,91871.50
2023-02-14T14:43:42.123Z,91875.97
2023-02-14T14:46:12.279Z,91870.91
2023-02-14T14:48:43.368Z,91882.31
2023-02-14T14:51:22.300Z,91882.19
2023-02-14T14:53:54.729Z,91876.53
2023-02-14T14:56:25.186Z,91867.69
2023-02-14T14:58:52.450Z,91872.06
2023-02-14T15:01:50.467Z,91868.19
2023-02-14T15:04:19.356Z,91881.19
2023-02-14T15:06:47.433Z,91882.19
2023-02-14T15:09:15.881Z,91880.56
2023-02-14T15:12:02.665Z,91879.78
2023-02-14T15:14:32.906Z,91873.38
2023-02-14T15:16:59.580Z,91881.84
2023-02-14T15:19:34.294Z,91892.72
2023-02-14T15:22:03.539Z,91887.97
2023-02-14T15:24:31.657Z,91892.16
2023-02-14T15:26:58.440Z,91900.50
2023-02-14T15:29:28.737Z,91899.44
2023-02-14T15:31:59.389Z,91907.50
2023-02-14T15:34:38.157Z,91914.72
2023-02-14T15:37:06.996Z,91915.38
2023-02-14T15:39:38.104Z,91931.47
2023-02-14T15:42:06.538Z,91928.84
2023-02-14T15:44:33.473Z,91942.25
2023-02-14T15:47:05.716Z,91948.56
2023-02-14T15:49:41.227Z,91956.53
2023-02-14T15:52:11.057Z,91962.50
2023-02-14T15:54:46.426Z,91968.91
2023-02-14T15:57:28.246Z,91961.53
2023-02-14T15:59:55.221Z,91971.09
2023-02-14T16:02:33.612Z,91980.72
2023-02-14T16:05:23.950Z,91978.28
2023-02-14T16:08:05.680Z,91969.75
2023-02-14T16:10:39.326Z,91965.47
2023-02-14T16:13:15.343Z,91973.56
2023-02-14T16:16:01.470Z,91979.56
2023-02-14T16:18:45.991Z,91975.75
2023-02-14T16:21:20.608Z,91972.22
2023-02-14T16:24:07.296Z,91974.22
2023-02-14T16:26:35.713Z,91974.97
2023-02-14T16:29:03.855Z,91972.69
2023-02-14T16:31:31.825Z,91977.66
2023-02-14T16:33:58.799Z,91977.16
2023-02-14T16:36:30.066Z,91973.69
2023-02-14T16:38:57.234Z,91977.75
2023-02-14T16:41:27.463Z,91970.91
2023-02-14T16:43:55.453Z,91973.94
2023-02-14T16:46:32.993Z,91984.59
2023-02-14T16:48:59.801Z,91987.38
2023-02-14T16:51:29.696Z,91996.22
2023-02-14T16:54:00.518Z,92000.25
2023-02-14T16:56:41.320Z,92001.00
2023-02-14T16:59:08.192Z,92002.56
2023-02-14T17:01:35.052Z,92008.47
2023-02-14T17:04:01.832Z,91976.63
2023-02-14T17:06:32.342Z,92011.81
2023-02-14T17:09:03.095Z,92006.84
2023-02-14T17:11:32.444Z,92022.97
2023-02-14T17:13:59.445Z,92023.44
2023-02-14T17:16:26.244Z,92032.44
2023-02-14T17:18:54.005Z,91985.50
2023-02-14T17:21:22.939Z,92020.97
2023-02-14T17:23:50.286Z,92011.03
2023-02-14T17:26:18.766Z,92018.53
2023-02-14T17:28:46.591Z,92021.28
2023-02-14T17:31:13.912Z,92018.34
2023-02-14T17:33:40.707Z,92021.09
2023-02-14T17:36:11.948Z,92027.16
2023-02-14T17:38:39.789Z,92025.50
2023-02-14T17:41:33.306Z,92025.50
2023-02-14T17:44:00.438Z,92023.78
2023-02-14T17:46:28.851Z,92023.22
2023-02-14T17:48:56.806Z,92024.34
2023-02-14T17:51:24.300Z,92027.44
2023-02-14T17:53:51.589Z,92025.56
2023-02-14T17:56:20.266Z,92031.03
2023-02-14T17:58:48.728Z,92025.50
2023-02-14T18:01:17.934Z,92028.22
2023-02-14T18:03:45.034Z,92045.06
2023-02-14T18:06:12.882Z,92026.88
2023-02-14T18:08:46.178Z,92036.25
2023-02-14T18:11:14.082Z,92038.28
2023-02-14T18:13:40.771Z,92056.00
2023-02-14T18:16:10.455Z,92048.03
2023-02-14T18:18:38.783Z,92056.00
2023-02-14T18:21:08.175Z,92056.00
2023-02-14T18:23:35.331Z,92049.84
2023-02-14T18:26:04.787Z,92062.19
2023-02-14T18:28:32.257Z,92067.56
2023-02-14T18:31:07.445Z,92058.09
2023-02-14T18:33:35.165Z,92049.06
2023-02-14T18:36:13.866Z,92069.84
2023-02-14T18:38:42.020Z,92079.78
2023-02-14T18:41:14.064Z,92060.19
2023-02-14T18:43:41.300Z,92078.19
2023-02-14T18:46:11.052Z,92074.66
2023-02-14T18:48:38.362Z,92055.28
2023-02-14T18:51:13.235Z,92087.16
2023-02-14T18:53:40.781Z,92080.66
2023-02-14T18:56:12.806Z,92080.03
2023-02-14T18:58:41.510Z,92089.28
2023-02-14T19:01:13.758Z,92079.63
2023-02-14T19:03:41.388Z,92076.00
2023-02-14T19:06:09.544Z,92073.50
2023-02-14T19:08:40.029Z,92076.75
2023-02-14T19:11:21.528Z,92090.03
2023-02-14T19:13:50.951Z,92084.13
2023-02-14T19:16:29.936Z,92083.16
2023-02-14T19:18:57.757Z,92049.41
2023-02-14T19:21:26.607Z,92080.75
2023-02-14T19:23:56.370Z,92078.56
2023-02-14T19:26:37.213Z,92038.69
2023-02-14T19:29:07.722Z,92062.81
2023-02-14T19:31:37.603Z,92050.97
2023-02-14T19:34:06.464Z,92059.38
2023-02-14T19:36:36.350Z,92068.47
2023-02-14T19:39:03.933Z,92043.00
2023-02-14T19:41:34.622Z,92067.09
2023-02-14T19:44:05.034Z,92075.56
2023-02-14T19:46:33.135Z,92072.97
2023-02-14T19:49:00.888Z,92067.09
2023-02-14T19:51:29.317Z,92068.81
2023-02-14T19:53:57.846Z,92067.91
2023-02-14T19:56:27.384Z,92066.28
2023-02-14T19:58:56.364Z,92061.38
2023-02-14T20:01:31.189Z,92060.19
2023-02-14T20:03:58.283Z,92060.91
2023-02-14T20:06:26.371Z,92060.75
2023-02-14T20:08:53.783Z,92063.59
2023-02-14T20:11:46.583Z,92053.41
2023-02-14T20:14:14.298Z,92031.34
2023-02-14T20:16:41.276Z,92032.31
2023-02-14T20:19:13.189Z,92067.59
2023-02-14T20:21:42.068Z,92073.41
2023-02-14T20:24:09.829Z,92064.59
2023-02-14T20:26:39.388Z,92069.13
2023-02-14T20:29:06.525Z,92080.00
2023-02-14T20:31:34.114Z,92073.47
2023-02-14T20:34:01.633Z,92075.47
2023-02-14T20:36:28.661Z,92081.34
2023-02-14T20:38:59.747Z,92082.78
2023-02-14T20:41:28.128Z,92089.00
2023-02-14T20:43:56.186Z,92092.75
2023-02-14T20:46:23.174Z,92094.84
2023-02-14T20:48:51.092Z,92092.28
2023-02-14T20:51:20.986Z,92096.97
2023-02-14T20:53:48.311Z,92103.38
2023-02-14T20:56:16.043Z,92101.34
2023-02-14T20:58:43.235Z,92104.03
2023-02-14T21:01:14.543Z,92106.88
2023-02-14T21:03:43.140Z,92111.06
2023-02-14T21:06:13.918Z,92117.97
2023-02-14T21:08:43.036Z,92116.56
2023-02-14T21:11:11.498Z,92118.53
2023-02-14T21:13:38.640Z,92117.41
2023-02-14T21:16:16.842Z,92120.00
2023-02-14T21:18:51.731Z,92120.34
2023-02-14T21:21:34.028Z,92120.63
2023-02-14T21:24:04.211Z,92125.53
2023-02-14T21:26:31.137Z,92124.56
2023-02-14T21:28:57.924Z,92120.22
2023-02-14T21:31:27.453Z,92128.13
2023-02-14T21:33:59.403Z,92126.53
2023-02-14T21:36:28.740Z,92129.94
2023-02-14T21:38:58.413Z,92116.69
2023-02-14T21:41:28.172Z,92107.22
2023-02-14T21:43:58.633Z,92113.91
2023-02-14T21:46:31.207Z,92116.63
2023-02-14T21:49:19.197Z,92123.06
2023-02-14T21:51:47.245Z,92118.88
2023-02-14T21:54:14.507Z,92127.63
2023-02-14T21:56:41.804Z,92129.13
2023-02-14T21:59:09.838Z,92127.75
2023-02-14T22:01:39.140Z,92131.56
2023-02-14T22:04:10.801Z,92128.00
2023-02-14T22:06:39.283Z,92135.28
2023-02-14T22:09:06.352Z,92143.00
2023-02-14T22:11:33.358Z,92132.41
2023-02-14T22:14:00.528Z,92139.38
2023-02-14T22:16:27.360Z,92147.16
2023-02-14T22:18:54.227Z,92147.28
2023-02-14T22:21:24.137Z,92142.34
2023-02-14T22:23:51.391Z,92087.03
2023-02-14T22:26:26.519Z,92137.66
2023-02-14T22:28:57.079Z,92148.69
2023-02-14T22:31:25.829Z,92138.47
2023-02-14T22:33:54.506Z,92137.94
2023-02-14T22:36:21.357Z,92139.59
2023-02-14T22:38:48.028Z,92147.84
2023-02-14T22:41:20.895Z,92140.38
2023-02-14T22:43:47.978Z,92142.25
2023-02-14T22:46:20.113Z,92145.19
2023-02-14T22:48:48.731Z,92143.22
2023-02-14T22:51:26.291Z,92152.88
2023-02-14T22:53:58.681Z,92144.72
2023-02-14T22:56:26.741Z,92151.00
2023-02-14T22:58:55.847Z,92146.22
2023-02-14T23:01:24.370Z,92151.38
2023-02-14T23:03:58.403Z,92152.84
2023-02-14T23:06:27.268Z,92151.78
2023-02-14T23:08:54.574Z,92143.66
2023-02-14T23:11:33.172Z,92150.34
2023-02-14T23:14:18.432Z,92144.44
2023-02-14T23:17:03.993Z,92150.66
2023-02-14T23:19:51.715Z,92148.31
2023-02-14T23:22:46.190Z,92145.25
2023-02-14T23:25:13.023Z,92153.00
2023-02-14T23:27:41.445Z,92150.16
2023-02-14T23:30:11.327Z,92153.16
2023-02-14T23:32:38.098Z,92150.09
2023-02-14T23:35:05.550Z,92153.69
2023-02-14T23:37:32.210Z,92151.88
2023-02-14T23:39:58.900Z,92147.66
2023-02-14T23:42:25.644Z,92147.31
2023-02-14T23:44:52.406Z,92138.13
2023-02-14T23:47:20.212Z,92144.00
2023-02-14T23:49:46.866Z,92154.03
2023-02-14T23:52:13.864Z,92153.78
2023-02-14T23:54:40.794Z,92165.44
2023-02-14T23:57:08.881Z,92169.66
2023-02-14T23:59:35.849Z,92167.16
